createdAt,value
2018-09-23T00:00:42.977Z,2.20
2018-09-23T00:03:11.494Z,6.40
2018-09-23T00:05:39.785Z,2.03
2018-09-23T00:08:08.106Z,2.93
2018-09-23T00:10:36.306Z,4.17
2018-09-23T00:13:04.595Z,3.13
2018-09-23T00:15:33.022Z,2.17
2018-09-23T00:18:01.342Z,4.73
2018-09-23T00:20:29.595Z,5.77
2018-09-23T00:22:57.802Z,2.23
2018-09-23T00:25:26.840Z,1.77
2018-09-23T00:27:55.058Z,1.77
2018-09-23T00:30:23.272Z,3.30
2018-09-23T00:32:51.531Z,2.40
2018-09-23T00:35:19.734Z,1.70
2018-09-23T00:37:49.202Z,4.83
2018-09-23T00:40:17.751Z,4.10
2018-09-23T00:42:45.962Z,2.87
2018-09-23T00:45:14.194Z,2.40
2018-09-23T00:47:42.719Z,4.30
2018-09-23T00:50:11.968Z,3.20
2018-09-23T00:52:40.306Z,2.43
2018-09-23T00:55:08.581Z,2.57
2018-09-23T00:57:36.854Z,3.83
2018-09-23T01:00:05.794Z,1.47
2018-09-23T01:02:34.173Z,3.40
2018-09-23T01:05:02.486Z,3.67
2018-09-23T01:07:30.662Z,2.80
2018-09-23T01:09:58.912Z,2.47
2018-09-23T01:12:27.236Z,2.07
2018-09-23T01:14:55.622Z,3.90
2018-09-23T01:17:23.821Z,3.97
2018-09-23T01:19:52.098Z,3.20
2018-09-23T01:22:20.295Z,2.67
2018-09-23T01:24:48.697Z,3.73
2018-09-23T01:27:16.898Z,4.50
2018-09-23T01:29:45.139Z,3.20
2018-09-23T01:32:13.415Z,6.67
2018-09-23T01:34:41.817Z,5.57
2018-09-23T01:37:10.273Z,4.93
2018-09-23T01:39:38.643Z,2.50
2018-09-23T01:42:07.405Z,3.33
2018-09-23T01:44:35.642Z,3.57
2018-09-23T01:47:03.970Z,3.07
2018-09-23T01:49:32.273Z,5.97
2018-09-23T01:52:00.832Z,3.70
2018-09-23T01:54:29.213Z,8.77
2018-09-23T01:56:57.672Z,3.63
2018-09-23T01:59:25.910Z,4.17
2018-09-23T02:01:54.205Z,5.97
2018-09-23T02:04:22.439Z,6.23
2018-09-23T02:06:50.673Z,4.90
2018-09-23T02:09:18.954Z,3.27
2018-09-23T02:11:47.444Z,4.23
2018-09-23T02:14:15.711Z,5.73
2018-09-23T02:16:43.896Z,4.23
2018-09-23T02:19:12.510Z,4.50
2018-09-23T02:21:40.699Z,5.73
2018-09-23T02:24:08.902Z,6.17
2018-09-23T02:26:37.125Z,4.50
2018-09-23T02:29:05.634Z,6.27
2018-09-23T02:31:33.881Z,7.33
2018-09-23T02:34:02.083Z,5.27
2018-09-23T02:36:30.330Z,4.47
2018-09-23T02:38:58.727Z,5.60
2018-09-23T02:41:27.097Z,7.90
2018-09-23T02:43:55.606Z,5.60
2018-09-23T02:46:23.781Z,6.07
2018-09-23T02:48:52.025Z,2.97
2018-09-23T02:51:20.554Z,6.50
2018-09-23T02:53:48.789Z,3.53
2018-09-23T02:56:17.016Z,5.83
2018-09-23T02:58:45.290Z,6.63
2018-09-23T03:01:13.551Z,6.00
2018-09-23T03:03:42.325Z,2.33
2018-09-23T03:06:10.607Z,4.90
2018-09-23T03:08:38.830Z,5.40
2018-09-23T03:11:07.849Z,7.60
2018-09-23T03:13:36.160Z,9.10
2018-09-23T03:16:04.510Z,6.93
2018-09-23T03:18:32.710Z,2.70
2018-09-23T03:21:00.985Z,5.73
2018-09-23T03:23:29.236Z,6.87
2018-09-23T03:25:57.673Z,4.07
2018-09-23T03:28:25.861Z,2.80
2018-09-23T03:30:54.126Z,4.07
2018-09-23T03:33:22.474Z,5.13
2018-09-23T03:35:50.904Z,6.70
2018-09-23T03:38:19.295Z,7.97
2018-09-23T03:40:47.502Z,7.20
2018-09-23T03:43:15.790Z,6.37
2018-09-23T03:45:44.090Z,5.37
2018-09-23T03:48:12.566Z,3.80
2018-09-23T03:50:40.786Z,9.93
2018-09-23T03:53:08.985Z,5.53
2018-09-23T03:55:37.259Z,5.37
2018-09-23T03:58:05.872Z,4.60
2018-09-23T04:00:34.538Z,3.73
2018-09-23T04:03:02.768Z,2.53
2018-09-23T04:05:30.982Z,7.27
2018-09-23T04:07:59.254Z,2.20
2018-09-23T04:10:27.810Z,3.50
2018-09-23T04:12:56.055Z,4.10
2018-09-23T04:15:24.287Z,6.20
2018-09-23T04:17:52.545Z,7.07
2018-09-23T04:20:21.002Z,6.73
2018-09-23T04:22:51.293Z,7.17
2018-09-23T04:25:20.866Z,4.07
2018-09-23T04:27:49.708Z,2.87
2018-09-23T04:30:19.463Z,5.93
2018-09-23T04:32:47.991Z,6.07
2018-09-23T04:35:16.790Z,5.27
2018-09-23T04:37:45.238Z,4.13
2018-09-23T04:40:14.016Z,8.60
2018-09-23T04:42:42.221Z,3.73
2018-09-23T04:45:10.422Z,8.80
2018-09-23T04:47:38.670Z,5.23
2018-09-23T04:50:06.902Z,4.90
2018-09-23T04:52:36.084Z,5.87
2018-09-23T04:55:04.685Z,8.03
2018-09-23T04:57:32.975Z,3.47
2018-09-23T05:00:01.169Z,6.27
2018-09-23T05:02:29.338Z,5.67
2018-09-23T05:04:57.624Z,3.97
2018-09-23T05:07:25.877Z,7.87
2018-09-23T05:09:54.089Z,9.90
2018-09-23T05:12:22.386Z,12.90
2018-09-23T05:14:50.609Z,16.40
2018-09-23T05:17:19.589Z,13.33
2018-09-23T05:19:47.869Z,11.07
2018-09-23T05:22:16.086Z,5.40
2018-09-23T05:24:44.313Z,7.23
2018-09-23T05:27:12.650Z,8.33
2018-09-23T05:29:40.907Z,5.83
2018-09-23T05:32:09.132Z,4.07
2018-09-23T05:34:37.341Z,3.87
2018-09-23T05:37:06.116Z,3.80
2018-09-23T05:39:34.591Z,6.13
2018-09-23T05:42:02.783Z,4.53
2018-09-23T05:44:31.027Z,3.70
2018-09-23T05:46:59.205Z,4.43
2018-09-23T05:49:27.522Z,7.63
2018-09-23T05:51:55.748Z,3.43
2018-09-23T05:54:23.964Z,3.60
2018-09-23T05:56:52.167Z,4.83
2018-09-23T05:59:20.636Z,4.60
2018-09-23T06:01:48.902Z,4.87
2018-09-23T06:04:17.099Z,5.07
2018-09-23T06:06:45.305Z,3.67
2018-09-23T06:09:13.979Z,5.53
2018-09-23T06:11:42.276Z,4.33
2018-09-23T06:14:10.506Z,3.27
2018-09-23T06:16:38.677Z,4.97
2018-09-23T06:19:06.878Z,4.63
2018-09-23T06:21:35.180Z,4.40
2018-09-23T06:24:03.387Z,3.93
2018-09-23T06:26:31.595Z,8.43
2018-09-23T06:28:59.769Z,1.23
2018-09-23T06:31:28.210Z,0.00
2018-09-23T06:33:56.473Z,0.00
2018-09-23T06:36:24.708Z,0.10
2018-09-23T06:38:52.949Z,0.00
2018-09-23T06:41:21.267Z,0.00
2018-09-23T06:43:49.739Z,0.13
2018-09-23T06:46:18.075Z,0.00
2018-09-23T06:48:46.275Z,0.00
2018-09-23T06:51:14.765Z,0.00
2018-09-23T06:53:43.401Z,0.00
2018-09-23T06:56:12.236Z,0.00
2018-09-23T06:58:40.482Z,0.00
2018-09-23T07:01:08.702Z,0.00
2018-09-23T07:03:36.922Z,0.00
2018-09-23T07:06:05.328Z,0.50
2018-09-23T07:08:34.714Z,0.10
2018-09-23T07:11:02.991Z,0.00
2018-09-23T07:13:31.201Z,0.00
2018-09-23T07:15:59.442Z,0.00
2018-09-23T07:18:28.187Z,0.07
2018-09-23T07:20:56.754Z,0.00
2018-09-23T07:23:24.921Z,0.43
2018-09-23T07:25:53.183Z,0.00
2018-09-23T07:28:22.340Z,0.23
2018-09-23T07:30:50.794Z,0.00
2018-09-23T07:33:19.090Z,0.13
2018-09-23T07:35:47.320Z,0.00
2018-09-23T07:38:15.601Z,0.10
2018-09-23T07:40:44.331Z,0.00
2018-09-23T07:43:12.757Z,0.00
2018-09-23T07:45:40.974Z,0.20
2018-09-23T07:48:09.259Z,0.00
2018-09-23T07:50:37.441Z,0.00
2018-09-23T07:53:06.133Z,0.10
2018-09-23T07:55:34.405Z,0.10
2018-09-23T07:58:02.612Z,0.00
2018-09-23T08:00:30.791Z,0.03
2018-09-23T08:02:59.033Z,1.10
2018-09-23T08:05:28.068Z,0.03
2018-09-23T08:07:57.525Z,0.20
2018-09-23T08:10:25.694Z,0.13
2018-09-23T08:12:54.098Z,0.37
2018-09-23T08:15:22.256Z,0.00
2018-09-23T08:17:50.555Z,0.30
2018-09-23T08:20:18.915Z,0.00
2018-09-23T08:22:47.509Z,0.00
2018-09-23T08:25:15.763Z,0.00
2018-09-23T08:27:45.638Z,0.63
2018-09-23T08:30:13.965Z,0.00
2018-09-23T08:32:42.663Z,0.00
2018-09-23T08:35:10.873Z,0.00
2018-09-23T08:37:39.255Z,0.50
2018-09-23T08:40:07.526Z,0.10
2018-09-23T08:42:35.777Z,0.00
2018-09-23T08:45:04.114Z,0.60
2018-09-23T08:47:32.471Z,0.27
2018-09-23T08:50:00.830Z,0.83
2018-09-23T08:52:29.287Z,0.10
2018-09-23T08:54:57.541Z,0.10
2018-09-23T08:57:25.802Z,0.30
2018-09-23T08:59:53.975Z,0.93
2018-09-23T09:02:22.236Z,1.97
2018-09-23T09:04:50.634Z,0.00
2018-09-23T09:07:19.198Z,0.47
2018-09-23T09:09:47.554Z,0.00
2018-09-23T09:12:15.831Z,0.30
2018-09-23T09:14:44.340Z,0.30
2018-09-23T09:17:12.573Z,2.27
2018-09-23T09:19:40.835Z,1.50
2018-09-23T09:22:09.136Z,0.20
2018-09-23T09:24:37.425Z,0.10
2018-09-23T09:27:06.230Z,0.00
2018-09-23T09:29:35.024Z,0.03
2018-09-23T09:32:05.277Z,1.03
2018-09-23T09:34:33.561Z,0.40
2018-09-23T09:37:02.043Z,0.00
2018-09-23T09:39:30.420Z,0.00
2018-09-23T09:41:59.044Z,0.53
2018-09-23T09:44:28.165Z,0.20
2018-09-23T09:46:56.663Z,0.00
2018-09-23T09:49:24.879Z,0.00
2018-09-23T09:51:53.145Z,0.00
2018-09-23T09:54:22.465Z,0.27
2018-09-23T09:56:51.354Z,0.03
2018-09-23T09:59:20.821Z,0.00
2018-09-23T10:01:49.129Z,0.00
2018-09-23T10:04:17.429Z,18.33
2018-09-23T10:06:45.956Z,0.13
2018-09-23T10:09:14.381Z,0.00
2018-09-23T10:11:42.663Z,0.00
2018-09-23T10:14:10.960Z,0.00
2018-09-23T10:16:39.286Z,0.23
2018-09-23T10:19:07.812Z,0.50
2018-09-23T10:21:36.387Z,0.33
2018-09-23T10:24:04.845Z,0.00
2018-09-23T10:26:33.051Z,0.33
2018-09-23T10:29:01.323Z,0.00
2018-09-23T10:31:29.750Z,0.00
2018-09-23T10:33:58.518Z,0.30
2018-09-23T10:36:27.148Z,0.03
2018-09-23T10:38:55.451Z,0.17
2018-09-23T10:41:24.119Z,0.00
2018-09-23T10:43:52.378Z,0.13
2018-09-23T10:46:20.811Z,0.30
2018-09-23T10:48:49.227Z,0.47
2018-09-23T10:51:17.386Z,0.10
2018-09-23T10:53:45.618Z,0.00
2018-09-23T10:56:14.122Z,0.30
2018-09-23T10:58:42.702Z,0.20
2018-09-23T11:01:10.899Z,0.10
2018-09-23T11:03:39.149Z,0.00
2018-09-23T11:06:07.407Z,0.10
2018-09-23T11:08:35.957Z,0.10
2018-09-23T11:11:04.169Z,0.00
2018-09-23T11:13:32.449Z,0.10
2018-09-23T11:16:00.658Z,0.07
2018-09-23T11:18:29.943Z,0.20
2018-09-23T11:20:58.501Z,0.00
2018-09-23T11:23:26.769Z,0.00
2018-09-23T11:25:54.995Z,0.00
2018-09-23T11:28:23.200Z,0.00
2018-09-23T11:30:51.914Z,0.00
2018-09-23T11:33:20.385Z,0.00
2018-09-23T11:35:48.859Z,0.17
2018-09-23T11:38:17.146Z,0.00
2018-09-23T11:40:45.377Z,0.00
2018-09-23T11:43:13.696Z,0.00
2018-09-23T11:45:42.636Z,0.10
2018-09-23T11:48:10.996Z,0.00
2018-09-23T11:50:39.213Z,0.00
2018-09-23T11:53:07.479Z,0.00
2018-09-23T11:55:36.052Z,0.00
2018-09-23T11:58:04.758Z,0.00
2018-09-23T12:00:32.987Z,0.00
2018-09-23T12:03:01.195Z,0.00
2018-09-23T12:05:29.987Z,0.03
2018-09-23T12:07:58.450Z,0.00
2018-09-23T12:10:26.745Z,0.00
2018-09-23T12:12:54.957Z,0.00
2018-09-23T12:15:23.137Z,0.00
2018-09-23T12:17:51.537Z,2.57
2018-09-23T12:20:19.775Z,0.03
2018-09-23T12:22:48.163Z,1.83
2018-09-23T12:25:16.406Z,0.03
2018-09-23T12:27:44.717Z,0.00
2018-09-23T12:30:12.914Z,0.00
2018-09-23T12:32:41.243Z,0.20
2018-09-23T12:35:09.542Z,0.00
2018-09-23T12:37:40.150Z,0.13
2018-09-23T12:40:10.454Z,0.00
2018-09-23T12:42:39.578Z,0.27
2018-09-23T12:45:08.297Z,0.00
2018-09-23T12:47:36.666Z,0.00
2018-09-23T12:50:05.855Z,0.00
2018-09-23T12:52:34.205Z,0.00
2018-09-23T12:55:02.387Z,1.83
2018-09-23T12:57:31.401Z,1.17
2018-09-23T12:59:59.675Z,1.30
2018-09-23T13:02:28.096Z,1.73
2018-09-23T13:05:00.783Z,0.80
2018-09-23T13:07:29.489Z,3.00
2018-09-23T13:09:57.803Z,1.60
2018-09-23T13:12:26.033Z,1.17
2018-09-23T13:14:54.221Z,0.83
2018-09-23T13:17:22.482Z,2.07
2018-09-23T13:19:50.937Z,1.20
2018-09-23T13:22:19.195Z,3.90
2018-09-23T13:24:47.378Z,1.67
2018-09-23T13:27:15.609Z,1.90
2018-09-23T13:29:43.926Z,0.70
2018-09-23T13:32:12.190Z,1.03
2018-09-23T13:34:40.422Z,0.50
2018-09-23T13:37:08.681Z,1.83
2018-09-23T13:39:37.170Z,1.33
2018-09-23T13:42:05.401Z,1.70
2018-09-23T13:44:33.609Z,2.53
2018-09-23T13:47:01.898Z,1.23
2018-09-23T13:49:30.180Z,2.20
2018-09-23T13:51:58.600Z,2.83
2018-09-23T13:54:26.854Z,0.90
2018-09-23T13:56:55.142Z,3.07
2018-09-23T13:59:23.327Z,0.70
2018-09-23T14:01:51.857Z,3.63
2018-09-23T14:04:20.679Z,1.77
2018-09-23T14:06:48.944Z,0.50
2018-09-23T14:09:17.221Z,1.40
2018-09-23T14:11:45.445Z,1.47
2018-09-23T14:14:13.807Z,0.83
2018-09-23T14:16:42.216Z,0.93
2018-09-23T14:19:10.430Z,0.73
2018-09-23T14:21:38.713Z,1.50
2018-09-23T14:24:06.995Z,0.83
2018-09-23T14:26:35.228Z,0.70
2018-09-23T14:29:03.651Z,1.20
2018-09-23T14:31:31.862Z,0.37
2018-09-23T14:34:00.088Z,1.00
2018-09-23T14:36:28.392Z,1.20
2018-09-23T14:38:56.638Z,0.60
2018-09-23T14:41:24.821Z,1.67
2018-09-23T14:43:53.075Z,0.70
2018-09-23T14:46:21.766Z,0.30
2018-09-23T14:48:49.981Z,0.57
2018-09-23T14:51:18.150Z,2.13
2018-09-23T14:53:46.322Z,1.00
2018-09-23T14:56:14.623Z,0.40
2018-09-23T14:58:42.806Z,1.10
2018-09-23T15:01:11.030Z,2.50
2018-09-23T15:03:39.335Z,1.90
2018-09-23T15:06:07.556Z,1.10
2018-09-23T15:08:36.410Z,0.50
2018-09-23T15:11:05.470Z,1.17
2018-09-23T15:13:33.667Z,0.60
2018-09-23T15:16:01.894Z,0.60
2018-09-23T15:18:30.173Z,1.03
2018-09-23T15:20:58.775Z,0.70
2018-09-23T15:23:27.051Z,0.20
2018-09-23T15:25:55.298Z,0.93
2018-09-23T15:28:23.575Z,2.10
2018-09-23T15:30:51.969Z,0.53
2018-09-23T15:33:21.222Z,0.23
2018-09-23T15:35:50.356Z,2.23
2018-09-23T15:38:18.565Z,0.73
2018-09-23T15:40:46.769Z,1.70
2018-09-23T15:43:14.989Z,2.50
2018-09-23T15:45:43.447Z,0.37
2018-09-23T15:48:12.176Z,0.17
2018-09-23T15:50:40.602Z,0.97
2018-09-23T15:53:09.389Z,0.40
2018-09-23T15:55:37.806Z,0.60
2018-09-23T15:58:06.401Z,2.00
2018-09-23T16:00:35.215Z,0.93
2018-09-23T16:03:03.522Z,0.33
2018-09-23T16:05:31.827Z,2.57
2018-09-23T16:08:00.468Z,0.93
2018-09-23T16:10:28.678Z,0.73
2018-09-23T16:12:57.136Z,0.40
2018-09-23T16:15:25.329Z,3.97
2018-09-23T16:17:53.723Z,4.27
2018-09-23T16:20:22.502Z,1.27
2018-09-23T16:22:50.927Z,14.50
2018-09-23T16:25:19.288Z,2.47
2018-09-23T16:27:47.732Z,3.40
2018-09-23T16:30:15.963Z,0.00
2018-09-23T16:32:44.318Z,0.00
2018-09-23T16:35:13.205Z,0.00
2018-09-23T16:37:41.561Z,0.00
2018-09-23T16:40:09.800Z,0.00
2018-09-23T16:42:38.057Z,0.00
2018-09-23T16:45:06.361Z,0.27
2018-09-23T16:47:35.393Z,0.00
2018-09-23T16:50:03.781Z,0.00
2018-09-23T16:52:32.019Z,0.50
2018-09-23T16:55:00.282Z,0.00
2018-09-23T16:57:28.614Z,7.57
2018-09-23T16:59:56.917Z,1.30
2018-09-23T17:02:25.475Z,0.10
2018-09-23T17:04:53.785Z,0.00
2018-09-23T17:07:22.473Z,0.00
2018-09-23T17:09:51.536Z,0.00
2018-09-23T17:12:19.951Z,0.13
2018-09-23T17:14:48.394Z,0.00
2018-09-23T17:17:16.639Z,0.00
2018-09-23T17:19:44.911Z,0.00
2018-09-23T17:22:13.219Z,0.00
2018-09-23T17:24:41.419Z,0.10
2018-09-23T17:27:09.655Z,0.00
2018-09-23T17:29:38.009Z,0.00
2018-09-23T17:32:06.715Z,0.00
2018-09-23T17:34:35.241Z,0.10
2018-09-23T17:37:03.571Z,0.00
2018-09-23T17:39:31.773Z,0.87
2018-09-23T17:41:59.953Z,0.00
2018-09-23T17:44:28.625Z,0.00
2018-09-23T17:46:56.979Z,0.00
2018-09-23T17:49:25.570Z,0.00
2018-09-23T17:51:54.001Z,0.00
2018-09-23T17:54:22.963Z,0.00
2018-09-23T17:56:51.680Z,0.00
2018-09-23T17:59:19.944Z,0.00
2018-09-23T18:01:48.310Z,0.10
2018-09-23T18:04:16.526Z,0.00
2018-09-23T18:06:44.922Z,14.03
2018-09-23T18:09:13.300Z,0.00
2018-09-23T18:11:41.667Z,0.00
2018-09-23T18:14:10.337Z,0.03
2018-09-23T18:16:38.662Z,0.23
2018-09-23T18:19:07.503Z,0.00
2018-09-23T18:21:36.226Z,0.00
2018-09-23T18:24:04.470Z,0.00
2018-09-23T18:26:32.768Z,0.47
2018-09-23T18:29:01.016Z,0.73
2018-09-23T18:31:29.929Z,0.00
2018-09-23T18:33:58.544Z,0.00
2018-09-23T18:36:26.769Z,1.30
2018-09-23T18:38:55.268Z,0.00
2018-09-23T18:41:23.683Z,0.00
2018-09-23T18:43:54.037Z,0.00
2018-09-23T18:46:22.914Z,0.00
2018-09-23T18:48:51.437Z,0.00
2018-09-23T18:51:19.946Z,0.00
2018-09-23T18:53:53.776Z,0.00
2018-09-23T18:56:22.637Z,0.00
2018-09-23T18:58:51.220Z,0.00
2018-09-23T19:01:20.575Z,0.00
2018-09-23T19:03:48.834Z,0.00
2018-09-23T19:06:17.144Z,0.00
2018-09-23T19:08:45.451Z,0.00
2018-09-23T19:11:13.985Z,0.00
2018-09-23T19:13:48.630Z,0.00
2018-09-23T19:16:22.306Z,0.00
2018-09-23T19:18:51.329Z,0.00
2018-09-23T19:21:19.541Z,0.00
2018-09-23T19:23:47.813Z,0.00
2018-09-23T19:26:16.063Z,0.00
2018-09-23T19:28:44.873Z,0.00
2018-09-23T19:31:13.391Z,0.00
2018-09-23T19:33:41.738Z,0.00
2018-09-23T19:36:09.990Z,0.00
2018-09-23T19:38:38.380Z,0.00
2018-09-23T19:41:07.226Z,0.00
2018-09-23T19:43:36.450Z,0.00
2018-09-23T19:46:05.812Z,0.07
2018-09-23T19:48:35.549Z,0.00
2018-09-23T19:51:03.839Z,0.00
2018-09-23T19:53:32.459Z,0.57
2018-09-23T19:56:01.045Z,0.00
2018-09-23T19:58:29.398Z,0.00
2018-09-23T20:00:58.196Z,0.00
2018-09-23T20:03:26.509Z,0.00
2018-09-23T20:05:54.798Z,0.00
2018-09-23T20:08:23.076Z,0.00
2018-09-23T20:10:51.674Z,0.00
2018-09-23T20:13:20.282Z,0.00
2018-09-23T20:15:48.715Z,0.00
2018-09-23T20:18:17.731Z,0.00
2018-09-23T20:20:45.937Z,0.00
2018-09-23T20:23:14.950Z,0.00
2018-09-23T20:25:44.023Z,0.00
2018-09-23T20:28:12.645Z,0.00
2018-09-23T20:30:41.495Z,0.00
2018-09-23T20:33:09.848Z,0.00
2018-09-23T20:35:38.041Z,0.00
2018-09-23T20:38:07.631Z,0.00
2018-09-23T20:40:36.298Z,0.00
2018-09-23T20:43:05.837Z,0.00
2018-09-23T20:45:34.155Z,0.00
2018-09-23T20:48:03.049Z,0.00
2018-09-23T20:50:31.642Z,0.00
2018-09-23T20:53:00.193Z,0.17
2018-09-23T20:55:29.609Z,0.00
2018-09-23T20:57:58.894Z,0.00
2018-09-23T21:00:28.008Z,0.00
2018-09-23T21:02:56.663Z,0.00
2018-09-23T21:05:24.863Z,0.00
2018-09-23T21:07:53.122Z,0.00
2018-09-23T21:10:21.453Z,0.00
2018-09-23T21:12:49.811Z,0.00
2018-09-23T21:15:18.119Z,0.00
2018-09-23T21:17:46.329Z,0.00
2018-09-23T21:20:14.767Z,0.00
2018-09-23T21:22:43.164Z,0.00
2018-09-23T21:25:11.461Z,0.00
2018-09-23T21:27:39.654Z,0.00
2018-09-23T21:30:07.958Z,0.00
2018-09-23T21:32:37.878Z,0.00
2018-09-23T21:35:07.071Z,0.00
2018-09-23T21:37:35.929Z,0.00
2018-09-23T21:40:04.319Z,0.00
2018-09-23T21:42:33.169Z,0.00
2018-09-23T21:45:01.691Z,0.00
2018-09-23T21:47:30.804Z,0.00
2018-09-23T21:50:00.049Z,0.03
2018-09-23T21:52:28.489Z,0.00
2018-09-23T21:54:56.761Z,0.00
2018-09-23T21:57:25.002Z,0.00
2018-09-23T21:59:53.599Z,0.00
2018-09-23T22:02:21.866Z,0.00
2018-09-23T22:04:51.303Z,0.00
2018-09-23T22:07:19.667Z,0.00
2018-09-23T22:09:47.863Z,0.00
2018-09-23T22:12:16.053Z,0.00
2018-09-23T22:14:45.214Z,0.10
2018-09-23T22:17:13.532Z,0.00
2018-09-23T22:19:42.387Z,0.00
2018-09-23T22:22:10.634Z,0.00
2018-09-23T22:24:38.895Z,0.00
2018-09-23T22:27:07.319Z,0.00
2018-09-23T22:29:35.862Z,0.20
2018-09-23T22:32:04.123Z,0.00
2018-09-23T22:34:32.349Z,0.00
2018-09-23T22:37:00.603Z,0.00
2018-09-23T22:39:29.862Z,0.00
2018-09-23T22:41:59.771Z,0.00
2018-09-23T22:44:29.184Z,0.00
2018-09-23T22:46:58.696Z,0.00
2018-09-23T22:49:27.532Z,0.00
2018-09-23T22:51:55.847Z,0.00
2018-09-23T22:54:25.867Z,0.00
2018-09-23T22:56:54.512Z,0.00
2018-09-23T22:59:30.112Z,0.00
2018-09-23T23:01:59.057Z,0.00
2018-09-23T23:04:28.606Z,0.00
2018-09-23T23:06:56.874Z,0.00
2018-09-23T23:09:25.114Z,0.00
2018-09-23T23:11:53.332Z,0.00
2018-09-23T23:14:21.741Z,0.00
2018-09-23T23:16:50.628Z,0.00
2018-09-23T23:19:18.986Z,0.00
2018-09-23T23:21:47.187Z,0.00
2018-09-23T23:24:15.469Z,0.00
2018-09-23T23:26:43.901Z,0.00
2018-09-23T23:29:13.400Z,0.00
2018-09-23T23:31:41.673Z,0.00
2018-09-23T23:34:09.938Z,0.00
2018-09-23T23:36:38.146Z,0.00
2018-09-23T23:39:08.816Z,0.00
2018-09-23T23:41:38.295Z,0.00
2018-09-23T23:44:07.480Z,0.00
2018-09-23T23:46:36.699Z,0.00
2018-09-23T23:49:05.713Z,2.00
2018-09-23T23:51:34.018Z,0.20
2018-09-23T23:54:02.236Z,0.00
2018-09-23T23:56:30.676Z,0.00
2018-09-23T23:58:59.503Z,0.00
